createdAt,value
2017-06-05T00:01:00.569Z,4.33
2017-06-05T00:03:32.057Z,1.57
2017-06-05T00:06:03.553Z,2.50
2017-06-05T00:08:35.010Z,2.23
2017-06-05T00:11:06.555Z,2.20
2017-06-05T00:13:38.050Z,2.03
2017-06-05T00:16:09.544Z,1.90
2017-06-05T00:18:41.051Z,1.87
2017-06-05T00:21:12.558Z,3.10
2017-06-05T00:23:44.105Z,1.97
2017-06-05T00:26:15.557Z,3.17
2017-06-05T00:28:47.058Z,1.87
2017-06-05T00:31:18.550Z,1.70
2017-06-05T00:33:50.092Z,1.87
2017-06-05T00:36:22.281Z,3.10
2017-06-05T00:38:53.792Z,2.57
2017-06-05T00:41:25.362Z,5.63
2017-06-05T00:43:57.621Z,3.40
2017-06-05T00:46:29.106Z,3.17
2017-06-05T00:49:00.630Z,2.17
2017-06-05T00:51:32.852Z,1.83
2017-06-05T00:54:04.413Z,1.93
2017-06-05T00:56:35.899Z,3.13
2017-06-05T00:59:07.381Z,1.73
2017-06-05T01:01:38.841Z,2.00
2017-06-05T01:04:10.461Z,5.50
2017-06-05T01:06:41.955Z,2.60
2017-06-05T01:09:13.573Z,3.23
2017-06-05T01:11:45.822Z,2.53
2017-06-05T01:16:55.686Z,1.73
2017-06-05T01:19:27.173Z,1.90
2017-06-05T01:21:58.796Z,1.80
2017-06-05T01:24:30.258Z,2.47
2017-06-05T01:27:02.638Z,3.97
2017-06-05T01:29:34.874Z,2.13
2017-06-05T01:32:06.422Z,2.90
2017-06-05T01:34:37.954Z,1.80
2017-06-05T01:37:09.528Z,3.83
2017-06-05T01:39:41.025Z,2.60
2017-06-05T01:42:13.466Z,3.20
2017-06-05T01:44:45.062Z,1.73
2017-06-05T01:47:16.633Z,4.10
2017-06-05T01:49:48.173Z,1.70
2017-06-05T01:52:19.684Z,4.53
2017-06-05T01:54:51.197Z,2.77
2017-06-05T01:57:22.694Z,2.20
2017-06-05T01:59:54.233Z,2.07
2017-06-05T02:02:25.797Z,4.00
2017-06-05T02:04:57.297Z,2.00
2017-06-05T02:07:28.849Z,2.43
2017-06-05T02:10:00.368Z,2.30
2017-06-05T02:12:32.643Z,1.80
2017-06-05T02:15:04.876Z,1.80
2017-06-05T02:17:36.354Z,1.80
2017-06-05T02:20:07.922Z,2.43
2017-06-05T02:22:40.130Z,1.77
2017-06-05T02:25:11.702Z,2.17
2017-06-05T02:27:43.225Z,2.20
2017-06-05T02:30:14.768Z,1.37
2017-06-05T02:32:46.320Z,2.10
2017-06-05T02:35:17.819Z,2.10
2017-06-05T02:37:49.325Z,1.97
2017-06-05T02:40:20.891Z,1.60
2017-06-05T02:42:52.402Z,1.33
2017-06-05T02:45:24.660Z,1.60
2017-06-05T02:47:56.124Z,2.03
2017-06-05T02:50:28.506Z,2.70
2017-06-05T02:53:00.001Z,3.50
2017-06-05T02:55:31.500Z,1.50
2017-06-05T02:58:03.697Z,2.30
2017-06-05T03:00:35.239Z,2.63
2017-06-05T03:03:06.748Z,1.70
2017-06-05T03:05:38.345Z,1.80
2017-06-05T03:08:09.847Z,2.00
2017-06-05T03:10:41.404Z,1.90
2017-06-05T03:13:12.917Z,2.13
2017-06-05T03:15:44.462Z,7.07
2017-06-05T03:18:15.956Z,2.23
2017-06-05T03:20:47.477Z,2.40
2017-06-05T03:23:18.963Z,2.00
2017-06-05T03:25:50.492Z,2.10
2017-06-05T03:28:21.994Z,1.80
2017-06-05T03:30:54.306Z,1.80
2017-06-05T03:33:25.870Z,1.93
2017-06-05T03:35:57.425Z,3.73
2017-06-05T03:38:28.938Z,1.47
2017-06-05T03:41:00.537Z,1.70
2017-06-05T03:43:32.026Z,2.50
2017-06-05T03:46:04.278Z,1.77
2017-06-05T03:48:35.803Z,2.30
2017-06-05T03:51:07.336Z,1.97
2017-06-05T03:53:38.808Z,1.80
2017-06-05T03:56:10.318Z,3.17
2017-06-05T03:58:41.834Z,2.70
2017-06-05T04:01:13.366Z,2.97
2017-06-05T04:03:44.882Z,7.03
2017-06-05T04:06:16.421Z,2.07
2017-06-05T04:08:48.678Z,1.87
2017-06-05T04:11:20.222Z,3.63
2017-06-05T04:13:51.676Z,2.43
2017-06-05T04:16:23.173Z,2.30
2017-06-05T04:18:54.719Z,2.00
2017-06-05T04:21:26.320Z,3.07
2017-06-05T04:23:57.777Z,2.60
2017-06-05T04:26:29.401Z,2.23
2017-06-05T04:29:00.912Z,2.60
2017-06-05T04:31:33.281Z,3.53
2017-06-05T04:34:05.582Z,2.17
2017-06-05T04:36:37.105Z,1.87
2017-06-05T04:39:09.353Z,1.80
2017-06-05T04:41:40.837Z,1.90
2017-06-05T04:44:12.396Z,4.40
2017-06-05T04:46:43.898Z,3.50
2017-06-05T04:49:15.549Z,3.73
2017-06-05T04:51:47.045Z,2.73
2017-06-05T04:54:19.293Z,3.13
2017-06-05T04:56:50.774Z,3.00
2017-06-05T04:59:22.326Z,6.30
2017-06-05T05:01:53.830Z,5.83
2017-06-05T05:04:25.400Z,3.67
2017-06-05T05:06:57.160Z,3.50
2017-06-05T05:09:28.838Z,3.87
2017-06-05T05:12:01.128Z,4.90
2017-06-05T05:14:32.689Z,3.13
2017-06-05T05:17:04.229Z,4.40
2017-06-05T05:19:35.849Z,3.47
2017-06-05T05:22:07.393Z,3.30
2017-06-05T05:24:38.889Z,3.80
2017-06-05T05:27:11.225Z,3.27
2017-06-05T05:29:43.490Z,5.67
2017-06-05T05:32:15.065Z,3.87
2017-06-05T05:34:47.332Z,6.50
2017-06-05T05:37:19.050Z,3.40
2017-06-05T05:39:51.286Z,2.73
2017-06-05T05:42:22.904Z,3.83
2017-06-05T05:44:54.385Z,3.20
2017-06-05T05:47:26.171Z,4.93
2017-06-05T05:49:58.681Z,3.03
2017-06-05T05:52:30.512Z,3.70
2017-06-05T05:55:02.029Z,3.53
2017-06-05T05:57:33.662Z,4.10
2017-06-05T06:00:06.259Z,2.80
2017-06-05T06:02:37.955Z,3.30
2017-06-05T06:05:09.772Z,3.77
2017-06-05T06:07:41.315Z,3.37
2017-06-05T06:10:13.695Z,3.40
2017-06-05T06:12:45.414Z,4.20
2017-06-05T06:15:16.993Z,2.90
2017-06-05T06:17:48.514Z,2.90
2017-06-05T06:20:20.126Z,2.77
2017-06-05T06:22:51.769Z,2.10
2017-06-05T06:25:23.273Z,2.30
2017-06-05T06:27:54.823Z,2.63
2017-06-05T06:30:26.364Z,2.60
2017-06-05T06:32:57.932Z,2.90
2017-06-05T06:35:29.482Z,2.73
2017-06-05T06:38:01.030Z,2.50
2017-06-05T06:40:32.583Z,3.13
2017-06-05T06:43:19.130Z,2.80
2017-06-05T06:45:51.369Z,2.60
2017-06-05T06:48:22.877Z,3.20
2017-06-05T06:50:54.459Z,5.47
2017-06-05T06:53:26.113Z,3.73
2017-06-05T06:55:57.800Z,3.80
2017-06-05T06:58:29.325Z,3.30
2017-06-05T07:01:00.968Z,3.47
2017-06-05T07:03:32.452Z,4.07
2017-06-05T07:06:03.985Z,4.33
2017-06-05T07:08:35.509Z,7.70
2017-06-05T07:11:07.045Z,4.70
2017-06-05T07:13:38.559Z,4.73
2017-06-05T07:16:10.045Z,5.07
2017-06-05T07:18:42.275Z,4.60
2017-06-05T07:21:13.842Z,4.43
2017-06-05T07:23:45.353Z,5.43
2017-06-05T07:26:16.907Z,4.57
2017-06-05T07:28:48.436Z,4.53
2017-06-05T07:31:19.944Z,4.73
2017-06-05T07:33:51.477Z,6.03
2017-06-05T07:36:22.982Z,6.17
2017-06-05T07:38:55.303Z,4.50
2017-06-05T07:41:26.799Z,5.63
2017-06-05T07:43:59.114Z,5.00
2017-06-05T07:46:30.598Z,5.03
2017-06-05T07:49:02.125Z,5.40
2017-06-05T07:51:33.648Z,4.60
2017-06-05T07:54:05.185Z,4.30
2017-06-05T07:56:36.698Z,5.47
2017-06-05T07:59:08.266Z,4.60
2017-06-05T08:01:39.773Z,5.00
2017-06-05T08:04:11.281Z,6.10
2017-06-05T08:06:43.525Z,7.47
2017-06-05T08:09:16.686Z,6.70
2017-06-05T08:11:48.241Z,6.97
2017-06-05T08:14:19.761Z,7.10
2017-06-05T08:16:51.518Z,7.37
2017-06-05T08:19:23.845Z,6.73
2017-06-05T08:21:55.488Z,6.03
2017-06-05T08:24:27.106Z,6.77
2017-06-05T08:26:59.485Z,5.87
2017-06-05T08:29:31.052Z,5.00
2017-06-05T08:32:02.632Z,5.03
2017-06-05T08:34:34.185Z,4.60
2017-06-05T08:37:05.704Z,4.87
2017-06-05T08:39:37.286Z,5.33
2017-06-05T08:42:08.768Z,5.33
2017-06-05T08:44:40.491Z,5.03
2017-06-05T08:47:12.013Z,5.57
2017-06-05T08:49:43.821Z,5.50
2017-06-05T08:52:15.416Z,4.60
2017-06-05T08:54:46.990Z,3.97
2017-06-05T08:57:18.518Z,4.33
2017-06-05T08:59:50.242Z,5.37
2017-06-05T09:02:21.762Z,4.80
2017-06-05T09:04:53.285Z,6.17
2017-06-05T09:07:24.812Z,4.87
2017-06-05T09:09:56.345Z,4.60
2017-06-05T09:12:27.812Z,4.07
2017-06-05T09:14:59.317Z,3.70
2017-06-05T09:17:30.944Z,3.30
2017-06-05T09:20:02.449Z,3.60
2017-06-05T09:22:34.065Z,3.27
2017-06-05T09:25:05.610Z,4.30
2017-06-05T09:27:37.425Z,4.47
2017-06-05T09:30:09.131Z,3.57
2017-06-05T09:32:40.641Z,3.77
2017-06-05T09:35:12.187Z,5.07
2017-06-05T09:37:43.696Z,3.80
2017-06-05T09:40:15.284Z,3.90
2017-06-05T09:42:46.852Z,3.10
2017-06-05T09:45:19.116Z,4.50
2017-06-05T09:47:50.605Z,3.80
2017-06-05T09:50:22.876Z,3.23
2017-06-05T09:52:54.388Z,4.70
2017-06-05T09:55:25.929Z,4.33
2017-06-05T09:57:57.437Z,4.43
2017-06-05T10:00:28.965Z,4.53
2017-06-05T10:03:01.238Z,3.93
2017-06-05T10:05:33.530Z,3.87
2017-06-05T10:08:05.038Z,3.77
2017-06-05T10:10:36.633Z,2.97
2017-06-05T10:13:08.100Z,3.90
2017-06-05T10:15:39.652Z,2.93
2017-06-05T10:18:11.169Z,4.30
2017-06-05T10:20:43.408Z,3.63
2017-06-05T10:23:14.926Z,4.70
2017-06-05T10:25:46.586Z,4.63
2017-06-05T10:28:18.113Z,3.83
2017-06-05T10:30:49.672Z,4.27
2017-06-05T10:33:21.150Z,12.57
2017-06-05T10:35:52.657Z,3.50
2017-06-05T10:38:24.962Z,5.07
2017-06-05T10:40:56.490Z,3.80
2017-06-05T10:43:28.005Z,4.17
2017-06-05T10:45:59.505Z,3.40
2017-06-05T10:48:31.070Z,3.77
2017-06-05T10:51:02.568Z,3.70
2017-06-05T10:53:34.168Z,4.20
2017-06-05T10:56:05.662Z,3.67
2017-06-05T10:58:37.204Z,4.73
2017-06-05T11:01:08.809Z,3.83
2017-06-05T11:03:40.430Z,3.60
2017-06-05T11:06:11.953Z,2.70
2017-06-05T11:08:43.499Z,2.97
2017-06-05T11:11:15.006Z,4.00
2017-06-05T11:13:47.301Z,3.07
2017-06-05T11:16:18.772Z,3.90
2017-06-05T11:18:50.298Z,3.73
2017-06-05T11:21:22.554Z,3.30
2017-06-05T11:23:54.119Z,3.47
2017-06-05T11:26:26.351Z,3.10
2017-06-05T11:28:57.889Z,3.53
2017-06-05T11:31:29.427Z,3.03
2017-06-05T11:34:00.933Z,2.97
2017-06-05T11:36:33.169Z,5.83
2017-06-05T11:39:04.656Z,2.87
2017-06-05T11:41:37.535Z,2.83
2017-06-05T11:44:09.446Z,3.00
2017-06-05T11:46:40.937Z,3.37
2017-06-05T11:49:12.492Z,3.63
2017-06-05T11:51:43.990Z,2.47
2017-06-05T11:54:15.862Z,2.70
2017-06-05T11:56:47.759Z,3.73
2017-06-05T11:59:19.467Z,4.33
2017-06-05T12:01:51.073Z,4.23
2017-06-05T12:04:22.666Z,3.07
2017-06-05T12:06:54.480Z,3.20
2017-06-05T12:09:26.091Z,3.40
2017-06-05T12:11:57.853Z,3.60
2017-06-05T12:14:29.416Z,3.00
2017-06-05T12:17:01.059Z,4.63
2017-06-05T12:19:32.718Z,3.60
2017-06-05T12:22:04.233Z,2.90
2017-06-05T12:24:36.578Z,3.50
2017-06-05T12:27:08.099Z,2.80
2017-06-05T12:29:39.885Z,3.17
2017-06-05T12:32:11.474Z,2.97
2017-06-05T12:34:43.825Z,3.10
2017-06-05T12:37:16.077Z,3.77
2017-06-05T12:39:47.584Z,3.57
2017-06-05T12:42:19.097Z,2.83
2017-06-05T12:44:50.625Z,3.70
2017-06-05T12:47:22.149Z,3.00
2017-06-05T12:49:53.670Z,3.10
2017-06-05T12:52:26.008Z,2.93
2017-06-05T12:54:57.511Z,3.40
2017-06-05T12:57:29.169Z,2.93
2017-06-05T13:00:00.677Z,5.70
2017-06-05T13:02:32.189Z,2.80
2017-06-05T13:05:03.698Z,3.80
2017-06-05T13:07:35.582Z,3.07
2017-06-05T13:10:07.148Z,3.27
2017-06-05T13:12:38.721Z,3.03
2017-06-05T13:15:10.984Z,3.50
2017-06-05T13:17:42.530Z,3.10
2017-06-05T13:20:14.086Z,3.10
2017-06-05T13:22:45.653Z,3.23
2017-06-05T13:25:17.189Z,3.40
2017-06-05T13:27:48.725Z,2.73
2017-06-05T13:30:20.197Z,2.80
2017-06-05T13:32:51.729Z,3.33
2017-06-05T13:35:23.282Z,2.67
2017-06-05T13:37:54.817Z,3.00
2017-06-05T13:40:26.452Z,2.57
2017-06-05T13:42:58.005Z,3.27
2017-06-05T13:45:29.626Z,7.40
2017-06-05T13:48:01.129Z,2.57
2017-06-05T13:50:33.415Z,2.80
2017-06-05T13:53:04.970Z,2.67
2017-06-05T13:55:36.470Z,3.10
2017-06-05T13:58:08.104Z,2.67
2017-06-05T14:00:39.562Z,3.30
2017-06-05T14:03:11.087Z,2.50
2017-06-05T14:05:42.601Z,3.20
2017-06-05T14:08:14.154Z,4.30
2017-06-05T14:10:45.671Z,3.40
2017-06-05T14:13:17.141Z,3.33
2017-06-05T14:15:48.678Z,3.27
2017-06-05T14:18:20.237Z,3.10
2017-06-05T14:20:51.752Z,3.57
2017-06-05T14:23:23.293Z,3.87
2017-06-05T14:25:54.817Z,2.90
2017-06-05T14:28:27.126Z,3.33
2017-06-05T14:30:58.616Z,3.63
2017-06-05T14:33:30.546Z,4.60
2017-06-05T14:36:02.069Z,3.57
2017-06-05T14:38:34.675Z,3.43
2017-06-05T14:41:06.293Z,4.40
2017-06-05T14:43:38.801Z,4.23
2017-06-05T14:46:10.385Z,3.60
2017-06-05T14:48:41.983Z,5.23
2017-06-05T14:51:13.524Z,3.60
2017-06-05T14:53:45.037Z,7.70
2017-06-05T14:56:16.582Z,3.00
2017-06-05T14:58:48.187Z,4.60
2017-06-05T15:01:20.558Z,4.00
2017-06-05T15:03:52.202Z,4.00
2017-06-05T15:06:23.805Z,4.30
2017-06-05T15:08:55.298Z,4.37
2017-06-05T15:11:26.833Z,4.13
2017-06-05T15:13:58.357Z,3.63
2017-06-05T15:16:29.957Z,3.43
2017-06-05T15:19:01.452Z,3.33
2017-06-05T15:21:33.045Z,3.77
2017-06-05T15:24:04.528Z,4.30
2017-06-05T15:26:36.074Z,3.83
2017-06-05T15:29:07.585Z,3.70
2017-06-05T15:31:39.134Z,4.10
2017-06-05T15:34:10.605Z,3.97
2017-06-05T15:36:42.128Z,3.97
2017-06-05T15:39:13.696Z,3.70
2017-06-05T15:41:45.159Z,3.33
2017-06-05T15:44:16.701Z,7.10
2017-06-05T15:46:48.259Z,6.70
2017-06-05T15:49:19.898Z,4.30
2017-06-05T15:51:51.381Z,5.70
2017-06-05T15:54:22.900Z,3.73
2017-06-05T15:56:54.400Z,3.97
2017-06-05T15:59:25.932Z,4.10
2017-06-05T16:01:57.453Z,5.73
2017-06-05T16:04:28.933Z,3.97
2017-06-05T16:07:00.800Z,4.47
2017-06-05T16:09:32.998Z,3.50
2017-06-05T16:12:05.034Z,3.80
2017-06-05T16:14:36.598Z,3.83
2017-06-05T16:17:08.188Z,3.47
2017-06-05T16:19:40.477Z,4.07
2017-06-05T16:22:11.989Z,3.70
2017-06-05T16:24:43.597Z,3.57
2017-06-05T16:27:15.666Z,4.10
2017-06-05T16:29:47.338Z,4.13
2017-06-05T16:32:18.845Z,3.30
2017-06-05T16:34:51.125Z,4.13
2017-06-05T16:37:22.625Z,3.60
2017-06-05T16:39:54.177Z,3.83
2017-06-05T16:42:25.704Z,3.83
2017-06-05T16:44:57.249Z,4.07
2017-06-05T16:47:28.764Z,3.77
2017-06-05T16:50:00.305Z,4.90
2017-06-05T16:52:31.838Z,4.00
2017-06-05T16:55:03.301Z,4.60
2017-06-05T16:57:34.808Z,4.23
2017-06-05T17:00:06.343Z,3.80
2017-06-05T17:02:37.921Z,4.37
2017-06-05T17:05:09.442Z,4.57
2017-06-05T17:07:40.989Z,4.80
2017-06-05T17:10:13.184Z,4.10
2017-06-05T17:12:44.700Z,3.53
2017-06-05T17:15:16.993Z,4.07
2017-06-05T17:17:48.513Z,4.47
2017-06-05T17:20:20.817Z,4.20
2017-06-05T17:22:52.311Z,5.07
2017-06-05T17:25:23.899Z,3.73
2017-06-05T17:27:55.424Z,3.90
2017-06-05T17:30:27.113Z,3.23
2017-06-05T17:32:58.601Z,5.77
2017-06-05T17:35:30.153Z,4.63
2017-06-05T17:38:01.663Z,5.40
2017-06-05T17:40:33.166Z,5.67
2017-06-05T17:43:04.695Z,9.03
2017-06-05T17:45:36.258Z,5.00
2017-06-05T17:48:07.741Z,4.60
2017-06-05T17:50:39.437Z,4.93
2017-06-05T17:53:11.696Z,3.80
2017-06-05T17:55:43.261Z,3.90
2017-06-05T17:58:15.505Z,4.00
2017-06-05T18:00:47.174Z,3.90
2017-06-05T18:03:18.696Z,3.73
2017-06-05T18:05:50.226Z,4.87
2017-06-05T18:08:22.545Z,3.97
2017-06-05T18:10:54.837Z,4.10
2017-06-05T18:13:27.093Z,4.77
2017-06-05T18:15:58.636Z,4.23
2017-06-05T18:18:30.974Z,5.30
2017-06-05T18:21:02.751Z,4.53
2017-06-05T18:23:35.190Z,7.57
2017-06-05T18:26:06.957Z,5.10
2017-06-05T18:28:38.553Z,4.03
2017-06-05T18:31:10.112Z,5.13
2017-06-05T18:33:41.605Z,4.03
2017-06-05T18:36:15.722Z,10.30
2017-06-05T18:38:47.180Z,4.33
2017-06-05T18:41:18.676Z,4.80
2017-06-05T18:43:50.368Z,5.20
2017-06-05T18:46:22.197Z,6.40
2017-06-05T18:48:54.029Z,5.63
2017-06-05T18:51:25.553Z,4.90
2017-06-05T18:53:57.884Z,5.10
2017-06-05T18:56:30.257Z,5.33
2017-06-05T18:59:02.773Z,4.77
2017-06-05T19:01:34.398Z,6.53
2017-06-05T19:04:06.002Z,4.53
2017-06-05T19:06:37.520Z,4.83
2017-06-05T19:09:09.589Z,6.10
2017-06-05T19:11:41.397Z,6.20
2017-06-05T19:14:13.767Z,5.47
2017-06-05T19:16:46.170Z,6.40
2017-06-05T19:19:19.377Z,5.83
2017-06-05T19:21:51.185Z,5.80
2017-06-05T19:24:22.762Z,6.03
2017-06-05T19:26:54.456Z,5.90
2017-06-05T19:29:26.013Z,5.97
2017-06-05T19:31:57.541Z,5.50
2017-06-05T19:34:29.993Z,6.90
2017-06-05T19:37:01.568Z,4.90
2017-06-05T19:39:33.881Z,5.87
2017-06-05T19:42:05.674Z,6.20
2017-06-05T19:44:37.252Z,6.40
2017-06-05T19:47:09.366Z,5.50
2017-06-05T19:49:43.380Z,5.67
2017-06-05T19:52:15.989Z,5.93
2017-06-05T19:54:47.709Z,4.87
2017-06-05T19:57:19.366Z,5.90
2017-06-05T19:59:50.997Z,5.97
2017-06-05T20:02:22.829Z,5.67
2017-06-05T20:04:54.411Z,9.23
2017-06-05T20:07:25.914Z,6.37
2017-06-05T20:09:57.477Z,6.47
2017-06-05T20:12:29.720Z,6.90
2017-06-05T20:15:01.470Z,6.70
2017-06-05T20:17:34.013Z,7.50
2017-06-05T20:20:06.430Z,6.33
2017-06-05T20:22:38.136Z,6.90
2017-06-05T20:25:09.737Z,8.53
2017-06-05T20:27:41.527Z,7.90
2017-06-05T20:30:13.061Z,6.80
2017-06-05T20:32:44.701Z,7.13
2017-06-05T20:35:16.468Z,6.47
2017-06-05T20:37:48.134Z,6.53
2017-06-05T20:40:20.435Z,6.30
2017-06-05T20:42:52.899Z,6.90
2017-06-05T20:45:24.605Z,6.30
2017-06-05T20:47:56.858Z,5.83
2017-06-05T20:50:28.697Z,5.30
2017-06-05T20:53:01.142Z,6.10
2017-06-05T20:55:33.510Z,7.30
2017-06-05T20:58:05.932Z,6.00
2017-06-05T21:00:37.450Z,5.97
2017-06-05T21:03:10.089Z,6.03
2017-06-05T21:05:42.499Z,6.17
2017-06-05T21:08:14.880Z,7.97
2017-06-05T21:10:46.498Z,5.30
2017-06-05T21:13:20.135Z,6.43
2017-06-05T21:15:51.794Z,6.77
2017-06-05T21:18:24.325Z,6.17
2017-06-05T21:20:55.953Z,5.87
2017-06-05T21:23:27.522Z,5.50
2017-06-05T21:25:59.069Z,6.13
2017-06-05T21:28:30.650Z,6.57
2017-06-05T21:31:02.230Z,6.37
2017-06-05T21:33:34.547Z,5.83
2017-06-05T21:36:06.288Z,6.07
2017-06-05T21:38:37.961Z,5.90
2017-06-05T21:41:09.527Z,5.77
2017-06-05T21:43:41.320Z,6.10
2017-06-05T21:46:13.114Z,7.20
2017-06-05T21:48:44.819Z,6.90
2017-06-05T21:51:16.389Z,5.90
2017-06-05T21:53:48.910Z,5.80
2017-06-05T21:56:20.613Z,5.63
2017-06-05T21:58:52.481Z,5.87
2017-06-05T22:01:24.106Z,6.63
2017-06-05T22:03:55.645Z,7.10
2017-06-05T22:06:27.422Z,6.40
2017-06-05T22:08:59.089Z,5.63
2017-06-05T22:11:30.622Z,6.60
2017-06-05T22:14:02.174Z,5.37
2017-06-05T22:16:33.706Z,6.97
2017-06-05T22:19:05.594Z,6.77
2017-06-05T22:21:37.206Z,6.50
2017-06-05T22:24:08.746Z,6.60
2017-06-05T22:26:42.621Z,7.17
2017-06-05T22:29:15.253Z,6.13
2017-06-05T22:31:46.969Z,9.30
2017-06-05T22:34:19.258Z,6.77
2017-06-05T22:36:50.765Z,6.07
2017-06-05T22:39:22.292Z,6.00
2017-06-05T22:41:54.136Z,6.13
2017-06-05T22:44:26.762Z,6.57
2017-06-05T22:46:58.449Z,5.90
2017-06-05T22:49:30.725Z,5.87
2017-06-05T22:52:02.992Z,6.97
2017-06-05T22:54:35.224Z,6.47
2017-06-05T22:57:06.758Z,6.70
2017-06-05T22:59:38.566Z,6.60
2017-06-05T23:02:11.547Z,6.80
2017-06-05T23:04:43.165Z,7.00
2017-06-05T23:07:14.688Z,8.17
2017-06-05T23:09:46.479Z,6.87
2017-06-05T23:12:18.050Z,6.83
2017-06-05T23:14:49.589Z,6.10
2017-06-05T23:17:21.107Z,7.10
2017-06-05T23:19:52.768Z,8.17
2017-06-05T23:22:24.289Z,7.30
2017-06-05T23:24:56.613Z,8.10
2017-06-05T23:27:28.265Z,6.97
2017-06-05T23:29:59.826Z,6.20
2017-06-05T23:32:31.429Z,6.73
2017-06-05T23:35:03.850Z,7.27
2017-06-05T23:37:35.393Z,7.30
2017-06-05T23:40:06.869Z,6.97
2017-06-05T23:42:38.393Z,7.00
2017-06-05T23:45:09.938Z,7.90
2017-06-05T23:47:41.544Z,7.40
2017-06-05T23:50:13.085Z,9.20
2017-06-05T23:52:44.758Z,7.10
2017-06-05T23:55:16.675Z,6.60
2017-06-05T23:57:48.358Z,6.60
